Downey, Iowa
Current Conditions -  °F | °C
As of 2:52 PM on Thursday 20 Nov 2014 (Local Time) from KIOW Reporting Station
Clear Clear  
Wind Chill: 16°   Ceiling: Unl
Heat Index: 27°   Visibility: 10mi
Dew Point: 10°   Wind: 14mph
Humidity: 49%   Direction: 320°NW
Pressure: 30.21"   Gusts: NA
Location:  41.6714°N, 91.2723°W
Report Text: KIOW 202052Z AUTO 32012KT 10SM CLR M03/M12 A3021 RMK AO2 SLP240 T10281122 53003
Loading
Personal Weather Stations






























Interactive Weather Map New forecast layout! Learn more

10-Day Weather Forecast

Advertisements
Track Severe Weather on mobile